sensor_id;sensor_type;location;lat;lon;timestamp;P1;durP1;ratioP1;P2;durP2;ratioP2
42192;SDS011;52467;40.114;18.306;2023-05-10T00:01:15;11.40;;;4.55;;
42192;SDS011;52467;40.114;18.306;2023-05-10T00:03:43;7.50;;;4.32;;
42192;SDS011;52467;40.114;18.306;2023-05-10T00:06:11;9.65;;;4.53;;
42192;SDS011;52467;40.114;18.306;2023-05-10T00:08:39;9.30;;;4.55;;
42192;SDS011;52467;40.114;18.306;2023-05-10T00:11:07;9.63;;;4.80;;
42192;SDS011;52467;40.114;18.306;2023-05-10T00:13:34;7.20;;;4.00;;
42192;SDS011;52467;40.114;18.306;2023-05-10T00:16:02;9.85;;;4.43;;
42192;SDS011;52467;40.114;18.306;2023-05-10T00:18:30;6.83;;;3.90;;
42192;SDS011;52467;40.114;18.306;2023-05-10T00:20:57;9.18;;;4.13;;
42192;SDS011;52467;40.114;18.306;2023-05-10T00:23:25;9.20;;;4.00;;
42192;SDS011;52467;40.114;18.306;2023-05-10T00:25:52;9.57;;;4.50;;
42192;SDS011;52467;40.114;18.306;2023-05-10T00:28:20;8.18;;;3.60;;
42192;SDS011;52467;40.114;18.306;2023-05-10T00:30:47;7.25;;;3.90;;
42192;SDS011;52467;40.114;18.306;2023-05-10T00:33:14;9.27;;;3.88;;
42192;SDS011;52467;40.114;18.306;2023-05-10T00:35:41;8.02;;;3.85;;
42192;SDS011;52467;40.114;18.306;2023-05-10T00:38:09;11.35;;;4.22;;
42192;SDS011;52467;40.114;18.306;2023-05-10T00:40:36;6.30;;;3.58;;
42192;SDS011;52467;40.114;18.306;2023-05-10T00:43:09;7.87;;;4.20;;
42192;SDS011;52467;40.114;18.306;2023-05-10T00:45:37;5.53;;;3.47;;
42192;SDS011;52467;40.114;18.306;2023-05-10T00:48:04;6.28;;;4.05;;
42192;SDS011;52467;40.114;18.306;2023-05-10T00:50:32;7.97;;;4.22;;
42192;SDS011;52467;40.114;18.306;2023-05-10T00:53:00;7.63;;;4.30;;
42192;SDS011;52467;40.114;18.306;2023-05-10T00:55:28;8.07;;;4.18;;
42192;SDS011;52467;40.114;18.306;2023-05-10T00:57:56;8.17;;;3.80;;
42192;SDS011;52467;40.114;18.306;2023-05-10T01:00:24;8.13;;;4.50;;
42192;SDS011;52467;40.114;18.306;2023-05-10T01:02:53;7.43;;;3.92;;
42192;SDS011;52467;40.114;18.306;2023-05-10T01:05:21;10.93;;;4.35;;
42192;SDS011;52467;40.114;18.306;2023-05-10T01:07:49;9.32;;;4.15;;
42192;SDS011;52467;40.114;18.306;2023-05-10T01:10:17;9.85;;;4.20;;
42192;SDS011;52467;40.114;18.306;2023-05-10T01:12:45;9.25;;;4.38;;
42192;SDS011;52467;40.114;18.306;2023-05-10T01:15:14;6.68;;;4.20;;
42192;SDS011;52467;40.114;18.306;2023-05-10T01:17:44;8.57;;;4.45;;
42192;SDS011;52467;40.114;18.306;2023-05-10T01:20:12;7.22;;;4.38;;
42192;SDS011;52467;40.114;18.306;2023-05-10T01:34:03;7.07;;;4.28;;
42192;SDS011;52467;40.114;18.306;2023-05-10T01:36:38;11.02;;;4.82;;
42192;SDS011;52467;40.114;18.306;2023-05-10T01:41:57;8.97;;;4.40;;
42192;SDS011;52467;40.114;18.306;2023-05-10T01:50:06;8.18;;;4.32;;
42192;SDS011;52467;40.114;18.306;2023-05-10T01:52:38;9.43;;;4.57;;
42192;SDS011;52467;40.114;18.306;2023-05-10T01:55:09;10.23;;;4.45;;
42192;SDS011;52467;40.114;18.306;2023-05-10T01:57:39;7.45;;;3.75;;
42192;SDS011;52467;40.114;18.306;2023-05-10T02:00:08;8.48;;;4.53;;
42192;SDS011;52467;40.114;18.306;2023-05-10T02:02:44;10.05;;;4.85;;
42192;SDS011;52467;40.114;18.306;2023-05-10T02:05:13;7.85;;;4.30;;
42192;SDS011;52467;40.114;18.306;2023-05-10T02:07:42;6.67;;;3.73;;
42192;SDS011;52467;40.114;18.306;2023-05-10T02:10:10;6.75;;;4.28;;
42192;SDS011;52467;40.114;18.306;2023-05-10T02:12:43;8.32;;;3.65;;
42192;SDS011;52467;40.114;18.306;2023-05-10T02:15:12;7.90;;;4.18;;
42192;SDS011;52467;40.114;18.306;2023-05-10T02:17:58;8.55;;;4.13;;
42192;SDS011;52467;40.114;18.306;2023-05-10T02:20:27;9.45;;;4.10;;
42192;SDS011;52467;40.114;18.306;2023-05-10T02:22:54;6.72;;;4.25;;
42192;SDS011;52467;40.114;18.306;2023-05-10T02:25:23;8.30;;;4.17;;
42192;SDS011;52467;40.114;18.306;2023-05-10T02:27:51;8.90;;;4.37;;
42192;SDS011;52467;40.114;18.306;2023-05-10T02:30:21;7.72;;;4.13;;
42192;SDS011;52467;40.114;18.306;2023-05-10T02:32:50;8.27;;;4.90;;
42192;SDS011;52467;40.114;18.306;2023-05-10T02:35:18;8.40;;;4.38;;
42192;SDS011;52467;40.114;18.306;2023-05-10T02:37:46;9.85;;;4.78;;
42192;SDS011;52467;40.114;18.306;2023-05-10T02:40:14;9.00;;;4.00;;
42192;SDS011;52467;40.114;18.306;2023-05-10T02:42:43;7.63;;;4.20;;
42192;SDS011;52467;40.114;18.306;2023-05-10T02:45:12;10.02;;;4.43;;
42192;SDS011;52467;40.114;18.306;2023-05-10T02:47:41;8.82;;;4.18;;
42192;SDS011;52467;40.114;18.306;2023-05-10T02:50:10;8.15;;;4.45;;
42192;SDS011;52467;40.114;18.306;2023-05-10T02:52:42;9.00;;;4.67;;
42192;SDS011;52467;40.114;18.306;2023-05-10T02:55:14;10.32;;;4.15;;
42192;SDS011;52467;40.114;18.306;2023-05-10T02:57:51;10.02;;;4.20;;
42192;SDS011;52467;40.114;18.306;2023-05-10T03:00:19;9.75;;;4.03;;
42192;SDS011;52467;40.114;18.306;2023-05-10T03:02:46;8.23;;;4.45;;
42192;SDS011;52467;40.114;18.306;2023-05-10T03:05:14;11.60;;;5.27;;
42192;SDS011;52467;40.114;18.306;2023-05-10T03:07:41;9.30;;;4.50;;
42192;SDS011;52467;40.114;18.306;2023-05-10T03:10:09;9.50;;;4.53;;
42192;SDS011;52467;40.114;18.306;2023-05-10T03:15:22;7.37;;;4.13;;
42192;SDS011;52467;40.114;18.306;2023-05-10T03:21:02;8.55;;;4.65;;
42192;SDS011;52467;40.114;18.306;2023-05-10T03:23:54;7.95;;;4.40;;
42192;SDS011;52467;40.114;18.306;2023-05-10T03:26:27;12.25;;;4.80;;
42192;SDS011;52467;40.114;18.306;2023-05-10T03:29:07;6.22;;;4.00;;
42192;SDS011;52467;40.114;18.306;2023-05-10T03:31:35;7.82;;;4.35;;
42192;SDS011;52467;40.114;18.306;2023-05-10T03:34:03;11.90;;;4.20;;
42192;SDS011;52467;40.114;18.306;2023-05-10T03:36:31;10.37;;;5.00;;
42192;SDS011;52467;40.114;18.306;2023-05-10T03:38:58;7.50;;;4.25;;
42192;SDS011;52467;40.114;18.306;2023-05-10T03:41:26;8.90;;;4.68;;
42192;SDS011;52467;40.114;18.306;2023-05-10T03:43:53;10.15;;;4.45;;
42192;SDS011;52467;40.114;18.306;2023-05-10T03:46:21;8.50;;;4.20;;
42192;SDS011;52467;40.114;18.306;2023-05-10T03:48:48;11.57;;;5.30;;
42192;SDS011;52467;40.114;18.306;2023-05-10T03:51:16;7.70;;;4.45;;
42192;SDS011;52467;40.114;18.306;2023-05-10T03:53:43;9.68;;;4.88;;
42192;SDS011;52467;40.114;18.306;2023-05-10T03:56:11;7.40;;;5.00;;
42192;SDS011;52467;40.114;18.306;2023-05-10T03:58:38;12.32;;;5.05;;
42192;SDS011;52467;40.114;18.306;2023-05-10T04:01:06;11.05;;;4.65;;
42192;SDS011;52467;40.114;18.306;2023-05-10T04:03:33;10.35;;;4.82;;
42192;SDS011;52467;40.114;18.306;2023-05-10T04:06:04;11.48;;;5.40;;
42192;SDS011;52467;40.114;18.306;2023-05-10T04:08:32;7.85;;;4.65;;
42192;SDS011;52467;40.114;18.306;2023-05-10T04:11:09;7.22;;;4.40;;
42192;SDS011;52467;40.114;18.306;2023-05-10T04:13:37;7.93;;;4.57;;
42192;SDS011;52467;40.114;18.306;2023-05-10T04:16:05;8.07;;;4.75;;
42192;SDS011;52467;40.114;18.306;2023-05-10T04:18:39;8.83;;;4.63;;
42192;SDS011;52467;40.114;18.306;2023-05-10T04:21:13;8.70;;;4.65;;
42192;SDS011;52467;40.114;18.306;2023-05-10T04:23:43;7.57;;;4.72;;
42192;SDS011;52467;40.114;18.306;2023-05-10T04:26:12;8.70;;;4.25;;
42192;SDS011;52467;40.114;18.306;2023-05-10T04:28:40;8.27;;;4.47;;
42192;SDS011;52467;40.114;18.306;2023-05-10T04:31:08;11.18;;;5.10;;
42192;SDS011;52467;40.114;18.306;2023-05-10T04:33:37;9.52;;;4.68;;
42192;SDS011;52467;40.114;18.306;2023-05-10T04:36:04;11.63;;;4.53;;
42192;SDS011;52467;40.114;18.306;2023-05-10T04:38:32;9.82;;;4.80;;
42192;SDS011;52467;40.114;18.306;2023-05-10T04:41:07;10.23;;;4.70;;
42192;SDS011;52467;40.114;18.306;2023-05-10T04:43:35;8.80;;;4.43;;
42192;SDS011;52467;40.114;18.306;2023-05-10T04:46:03;8.32;;;5.07;;
42192;SDS011;52467;40.114;18.306;2023-05-10T04:48:30;10.38;;;4.63;;
42192;SDS011;52467;40.114;18.306;2023-05-10T04:50:58;8.52;;;4.60;;
42192;SDS011;52467;40.114;18.306;2023-05-10T04:53:25;10.55;;;5.25;;
42192;SDS011;52467;40.114;18.306;2023-05-10T04:55:52;12.85;;;4.93;;
42192;SDS011;52467;40.114;18.306;2023-05-10T04:58:20;11.65;;;4.88;;
42192;SDS011;52467;40.114;18.306;2023-05-10T05:00:47;11.68;;;4.72;;
42192;SDS011;52467;40.114;18.306;2023-05-10T05:03:14;10.65;;;5.28;;
42192;SDS011;52467;40.114;18.306;2023-05-10T05:05:42;9.10;;;4.70;;
42192;SDS011;52467;40.114;18.306;2023-05-10T05:08:11;7.85;;;4.18;;
42192;SDS011;52467;40.114;18.306;2023-05-10T05:10:38;9.77;;;4.93;;
42192;SDS011;52467;40.114;18.306;2023-05-10T05:13:05;7.97;;;4.93;;
42192;SDS011;52467;40.114;18.306;2023-05-10T05:15:33;8.02;;;4.60;;
42192;SDS011;52467;40.114;18.306;2023-05-10T05:18:00;10.80;;;4.65;;
42192;SDS011;52467;40.114;18.306;2023-05-10T05:20:27;8.68;;;4.28;;
42192;SDS011;52467;40.114;18.306;2023-05-10T05:22:55;9.87;;;4.80;;
42192;SDS011;52467;40.114;18.306;2023-05-10T05:25:22;10.82;;;5.18;;
42192;SDS011;52467;40.114;18.306;2023-05-10T05:27:50;9.82;;;4.78;;
42192;SDS011;52467;40.114;18.306;2023-05-10T05:30:18;10.02;;;4.93;;
42192;SDS011;52467;40.114;18.306;2023-05-10T05:32:45;10.10;;;5.20;;
42192;SDS011;52467;40.114;18.306;2023-05-10T05:35:13;8.25;;;4.95;;
42192;SDS011;52467;40.114;18.306;2023-05-10T05:37:41;8.15;;;4.97;;
42192;SDS011;52467;40.114;18.306;2023-05-10T05:40:11;8.30;;;4.57;;
42192;SDS011;52467;40.114;18.306;2023-05-10T05:42:39;7.47;;;4.13;;
42192;SDS011;52467;40.114;18.306;2023-05-10T05:45:06;7.25;;;4.45;;
42192;SDS011;52467;40.114;18.306;2023-05-10T05:47:35;11.65;;;5.20;;
42192;SDS011;52467;40.114;18.306;2023-05-10T05:50:02;11.05;;;4.45;;
42192;SDS011;52467;40.114;18.306;2023-05-10T05:52:30;10.27;;;5.53;;
42192;SDS011;52467;40.114;18.306;2023-05-10T05:54:57;10.18;;;4.80;;
42192;SDS011;52467;40.114;18.306;2023-05-10T05:57:25;7.78;;;4.50;;
42192;SDS011;52467;40.114;18.306;2023-05-10T05:59:53;9.60;;;4.93;;
42192;SDS011;52467;40.114;18.306;2023-05-10T06:02:20;8.30;;;4.68;;
42192;SDS011;52467;40.114;18.306;2023-05-10T06:04:47;10.43;;;4.47;;
42192;SDS011;52467;40.114;18.306;2023-05-10T06:07:15;12.17;;;4.27;;
42192;SDS011;52467;40.114;18.306;2023-05-10T06:09:42;9.60;;;4.27;;
42192;SDS011;52467;40.114;18.306;2023-05-10T06:12:09;6.13;;;4.47;;
42192;SDS011;52467;40.114;18.306;2023-05-10T06:14:38;9.20;;;4.15;;
42192;SDS011;52467;40.114;18.306;2023-05-10T06:17:05;7.25;;;4.20;;
42192;SDS011;52467;40.114;18.306;2023-05-10T06:19:33;7.90;;;4.55;;
42192;SDS011;52467;40.114;18.306;2023-05-10T06:22:00;7.00;;;3.92;;
42192;SDS011;52467;40.114;18.306;2023-05-10T06:24:28;7.00;;;3.92;;
42192;SDS011;52467;40.114;18.306;2023-05-10T06:26:55;6.97;;;3.83;;
42192;SDS011;52467;40.114;18.306;2023-05-10T06:29:22;8.73;;;4.40;;
42192;SDS011;52467;40.114;18.306;2023-05-10T06:31:51;6.53;;;3.80;;
42192;SDS011;52467;40.114;18.306;2023-05-10T06:34:18;8.60;;;4.10;;
42192;SDS011;52467;40.114;18.306;2023-05-10T06:36:45;9.20;;;4.63;;
42192;SDS011;52467;40.114;18.306;2023-05-10T06:39:13;6.97;;;3.78;;
42192;SDS011;52467;40.114;18.306;2023-05-10T06:41:40;6.82;;;3.90;;
42192;SDS011;52467;40.114;18.306;2023-05-10T06:44:08;8.73;;;4.18;;
42192;SDS011;52467;40.114;18.306;2023-05-10T06:46:36;6.20;;;3.60;;
42192;SDS011;52467;40.114;18.306;2023-05-10T06:49:04;8.75;;;3.83;;
42192;SDS011;52467;40.114;18.306;2023-05-10T06:51:31;6.82;;;3.90;;
42192;SDS011;52467;40.114;18.306;2023-05-10T06:53:59;7.55;;;3.97;;
42192;SDS011;52467;40.114;18.306;2023-05-10T06:56:26;7.35;;;4.15;;
42192;SDS011;52467;40.114;18.306;2023-05-10T06:58:54;7.03;;;3.90;;
42192;SDS011;52467;40.114;18.306;2023-05-10T07:01:22;7.43;;;4.13;;
42192;SDS011;52467;40.114;18.306;2023-05-10T07:03:49;7.57;;;4.57;;
42192;SDS011;52467;40.114;18.306;2023-05-10T07:06:17;8.68;;;4.22;;
42192;SDS011;52467;40.114;18.306;2023-05-10T07:08:51;9.77;;;4.20;;
42192;SDS011;52467;40.114;18.306;2023-05-10T07:11:18;9.10;;;3.83;;
42192;SDS011;52467;40.114;18.306;2023-05-10T07:13:45;8.25;;;4.03;;
42192;SDS011;52467;40.114;18.306;2023-05-10T07:16:13;9.20;;;4.45;;
42192;SDS011;52467;40.114;18.306;2023-05-10T07:18:41;7.13;;;3.78;;
42192;SDS011;52467;40.114;18.306;2023-05-10T07:21:08;8.00;;;4.05;;
42192;SDS011;52467;40.114;18.306;2023-05-10T07:23:36;8.45;;;4.00;;
42192;SDS011;52467;40.114;18.306;2023-05-10T07:26:03;7.30;;;4.10;;
42192;SDS011;52467;40.114;18.306;2023-05-10T07:28:31;7.82;;;3.60;;
42192;SDS011;52467;40.114;18.306;2023-05-10T07:30:58;12.05;;;3.75;;
42192;SDS011;52467;40.114;18.306;2023-05-10T07:33:25;7.07;;;3.70;;
42192;SDS011;52467;40.114;18.306;2023-05-10T07:35:53;11.30;;;4.40;;
42192;SDS011;52467;40.114;18.306;2023-05-10T07:38:20;8.05;;;4.03;;
42192;SDS011;52467;40.114;18.306;2023-05-10T07:40:48;8.75;;;3.78;;
42192;SDS011;52467;40.114;18.306;2023-05-10T07:43:15;5.95;;;3.72;;
42192;SDS011;52467;40.114;18.306;2023-05-10T07:45:43;7.55;;;3.97;;
42192;SDS011;52467;40.114;18.306;2023-05-10T07:48:10;7.53;;;4.28;;
42192;SDS011;52467;40.114;18.306;2023-05-10T07:50:38;6.90;;;4.27;;
42192;SDS011;52467;40.114;18.306;2023-05-10T07:53:05;10.37;;;4.40;;
42192;SDS011;52467;40.114;18.306;2023-05-10T07:55:33;9.10;;;4.40;;
42192;SDS011;52467;40.114;18.306;2023-05-10T07:58:00;9.63;;;4.90;;
42192;SDS011;52467;40.114;18.306;2023-05-10T08:00:28;10.23;;;4.63;;
42192;SDS011;52467;40.114;18.306;2023-05-10T08:02:55;11.90;;;4.70;;
42192;SDS011;52467;40.114;18.306;2023-05-10T08:05:23;11.30;;;5.00;;
42192;SDS011;52467;40.114;18.306;2023-05-10T08:07:50;15.25;;;5.60;;
42192;SDS011;52467;40.114;18.306;2023-05-10T08:10:17;10.77;;;4.43;;
42192;SDS011;52467;40.114;18.306;2023-05-10T08:12:45;8.43;;;4.70;;
42192;SDS011;52467;40.114;18.306;2023-05-10T08:15:12;10.98;;;4.55;;
42192;SDS011;52467;40.114;18.306;2023-05-10T08:17:39;7.10;;;3.93;;
42192;SDS011;52467;40.114;18.306;2023-05-10T08:20:07;7.45;;;4.18;;
42192;SDS011;52467;40.114;18.306;2023-05-10T08:22:35;8.05;;;4.53;;
42192;SDS011;52467;40.114;18.306;2023-05-10T08:25:02;10.17;;;4.43;;
42192;SDS011;52467;40.114;18.306;2023-05-10T08:27:30;12.52;;;4.60;;
42192;SDS011;52467;40.114;18.306;2023-05-10T08:29:57;8.48;;;4.40;;
42192;SDS011;52467;40.114;18.306;2023-05-10T08:32:25;8.77;;;4.40;;
42192;SDS011;52467;40.114;18.306;2023-05-10T08:34:52;11.70;;;4.57;;
42192;SDS011;52467;40.114;18.306;2023-05-10T08:37:19;8.20;;;4.22;;
42192;SDS011;52467;40.114;18.306;2023-05-10T08:39:47;7.68;;;4.13;;
42192;SDS011;52467;40.114;18.306;2023-05-10T08:42:16;9.97;;;4.30;;
42192;SDS011;52467;40.114;18.306;2023-05-10T08:44:47;9.43;;;3.72;;
42192;SDS011;52467;40.114;18.306;2023-05-10T08:47:15;7.90;;;4.63;;
42192;SDS011;52467;40.114;18.306;2023-05-10T08:49:43;7.40;;;4.03;;
42192;SDS011;52467;40.114;18.306;2023-05-10T08:52:11;6.97;;;3.70;;
42192;SDS011;52467;40.114;18.306;2023-05-10T08:54:40;6.63;;;3.80;;
42192;SDS011;52467;40.114;18.306;2023-05-10T08:57:08;7.32;;;3.38;;
42192;SDS011;52467;40.114;18.306;2023-05-10T08:59:35;4.95;;;2.85;;
42192;SDS011;52467;40.114;18.306;2023-05-10T09:02:06;6.10;;;3.30;;
42192;SDS011;52467;40.114;18.306;2023-05-10T09:04:37;5.50;;;3.13;;
42192;SDS011;52467;40.114;18.306;2023-05-10T09:07:04;4.57;;;2.60;;
42192;SDS011;52467;40.114;18.306;2023-05-10T09:09:32;6.17;;;2.60;;
42192;SDS011;52467;40.114;18.306;2023-05-10T09:12:00;4.78;;;2.67;;
42192;SDS011;52467;40.114;18.306;2023-05-10T09:14:27;5.88;;;2.53;;
42192;SDS011;52467;40.114;18.306;2023-05-10T09:16:55;4.72;;;2.30;;
42192;SDS011;52467;40.114;18.306;2023-05-10T09:19:24;4.00;;;2.45;;
42192;SDS011;52467;40.114;18.306;2023-05-10T09:21:52;4.03;;;2.33;;
42192;SDS011;52467;40.114;18.306;2023-05-10T09:24:20;6.22;;;2.45;;
42192;SDS011;52467;40.114;18.306;2023-05-10T09:26:53;5.53;;;2.45;;
42192;SDS011;52467;40.114;18.306;2023-05-10T09:29:20;3.83;;;2.25;;
42192;SDS011;52467;40.114;18.306;2023-05-10T09:31:49;5.22;;;2.42;;
42192;SDS011;52467;40.114;18.306;2023-05-10T09:34:19;5.13;;;2.40;;
42192;SDS011;52467;40.114;18.306;2023-05-10T09:36:51;5.00;;;2.40;;
42192;SDS011;52467;40.114;18.306;2023-05-10T09:39:29;6.40;;;2.67;;
42192;SDS011;52467;40.114;18.306;2023-05-10T09:42:02;4.72;;;2.47;;
42192;SDS011;52467;40.114;18.306;2023-05-10T09:44:32;4.72;;;2.42;;
42192;SDS011;52467;40.114;18.306;2023-05-10T09:47:00;4.53;;;2.03;;
42192;SDS011;52467;40.114;18.306;2023-05-10T09:49:28;3.67;;;1.90;;
42192;SDS011;52467;40.114;18.306;2023-05-10T09:52:06;4.93;;;2.40;;
42192;SDS011;52467;40.114;18.306;2023-05-10T09:54:34;6.60;;;2.55;;
42192;SDS011;52467;40.114;18.306;2023-05-10T09:57:01;4.13;;;2.20;;
42192;SDS011;52467;40.114;18.306;2023-05-10T09:59:29;6.07;;;2.40;;
42192;SDS011;52467;40.114;18.306;2023-05-10T10:01:57;8.52;;;2.75;;
42192;SDS011;52467;40.114;18.306;2023-05-10T10:04:27;9.82;;;2.30;;
42192;SDS011;52467;40.114;18.306;2023-05-10T10:06:58;5.28;;;2.33;;
42192;SDS011;52467;40.114;18.306;2023-05-10T10:09:30;5.50;;;2.15;;
42192;SDS011;52467;40.114;18.306;2023-05-10T10:11:59;5.00;;;2.25;;
42192;SDS011;52467;40.114;18.306;2023-05-10T10:14:26;5.47;;;2.10;;
42192;SDS011;52467;40.114;18.306;2023-05-10T10:16:56;10.57;;;3.13;;
42192;SDS011;52467;40.114;18.306;2023-05-10T10:19:32;14.93;;;2.70;;
42192;SDS011;52467;40.114;18.306;2023-05-10T10:22:01;5.90;;;2.15;;
42192;SDS011;52467;40.114;18.306;2023-05-10T10:24:29;6.17;;;1.80;;
42192;SDS011;52467;40.114;18.306;2023-05-10T10:26:57;5.07;;;2.20;;
42192;SDS011;52467;40.114;18.306;2023-05-10T10:34:34;4.35;;;2.30;;
42192;SDS011;52467;40.114;18.306;2023-05-10T10:37:05;4.30;;;2.25;;
42192;SDS011;52467;40.114;18.306;2023-05-10T10:39:33;3.97;;;1.90;;
42192;SDS011;52467;40.114;18.306;2023-05-10T10:42:03;3.95;;;2.05;;
42192;SDS011;52467;40.114;18.306;2023-05-10T10:57:33;3.75;;;1.80;;
42192;SDS011;52467;40.114;18.306;2023-05-10T11:08:47;9.57;;;2.13;;
42192;SDS011;52467;40.114;18.306;2023-05-10T11:10:53;4.15;;;2.35;;
42192;SDS011;52467;40.114;18.306;2023-05-10T11:16:14;3.92;;;2.03;;
42192;SDS011;52467;40.114;18.306;2023-05-10T11:19:03;4.70;;;2.33;;
42192;SDS011;52467;40.114;18.306;2023-05-10T11:21:32;6.78;;;2.25;;
42192;SDS011;52467;40.114;18.306;2023-05-10T11:24:00;3.90;;;1.80;;
42192;SDS011;52467;40.114;18.306;2023-05-10T11:26:33;5.57;;;2.63;;
42192;SDS011;52467;40.114;18.306;2023-05-10T11:29:01;7.00;;;3.53;;
42192;SDS011;52467;40.114;18.306;2023-05-10T11:31:31;9.30;;;2.72;;
42192;SDS011;52467;40.114;18.306;2023-05-10T11:33:58;5.50;;;2.30;;
42192;SDS011;52467;40.114;18.306;2023-05-10T11:36:37;5.95;;;2.60;;
42192;SDS011;52467;40.114;18.306;2023-05-10T11:39:04;8.05;;;1.77;;
42192;SDS011;52467;40.114;18.306;2023-05-10T11:41:32;4.35;;;2.50;;
42192;SDS011;52467;40.114;18.306;2023-05-10T11:43:59;5.95;;;1.70;;
42192;SDS011;52467;40.114;18.306;2023-05-10T11:46:27;4.93;;;1.88;;
42192;SDS011;52467;40.114;18.306;2023-05-10T11:49:01;6.47;;;2.30;;
42192;SDS011;52467;40.114;18.306;2023-05-10T11:51:33;4.15;;;1.80;;
42192;SDS011;52467;40.114;18.306;2023-05-10T11:54:05;2.73;;;1.67;;
42192;SDS011;52467;40.114;18.306;2023-05-10T11:56:36;3.67;;;1.95;;
42192;SDS011;52467;40.114;18.306;2023-05-10T11:59:04;6.18;;;2.10;;
42192;SDS011;52467;40.114;18.306;2023-05-10T12:01:32;5.18;;;2.15;;
42192;SDS011;52467;40.114;18.306;2023-05-10T12:03:59;4.55;;;2.10;;
42192;SDS011;52467;40.114;18.306;2023-05-10T12:06:29;3.40;;;1.83;;
42192;SDS011;52467;40.114;18.306;2023-05-10T12:08:57;3.92;;;2.08;;
42192;SDS011;52467;40.114;18.306;2023-05-10T12:11:25;8.82;;;2.58;;
42192;SDS011;52467;40.114;18.306;2023-05-10T12:13:55;3.90;;;2.30;;
42192;SDS011;52467;40.114;18.306;2023-05-10T12:16:23;5.55;;;1.92;;
42192;SDS011;52467;40.114;18.306;2023-05-10T12:18:53;3.58;;;2.15;;
42192;SDS011;52467;40.114;18.306;2023-05-10T12:21:23;5.97;;;2.55;;
42192;SDS011;52467;40.114;18.306;2023-05-10T12:23:51;4.07;;;1.90;;
42192;SDS011;52467;40.114;18.306;2023-05-10T12:26:23;5.05;;;2.22;;
42192;SDS011;52467;40.114;18.306;2023-05-10T12:28:52;3.47;;;2.20;;
42192;SDS011;52467;40.114;18.306;2023-05-10T12:31:20;4.43;;;2.43;;
42192;SDS011;52467;40.114;18.306;2023-05-10T12:33:47;3.63;;;2.10;;
42192;SDS011;52467;40.114;18.306;2023-05-10T12:36:16;5.00;;;2.50;;
42192;SDS011;52467;40.114;18.306;2023-05-10T12:38:45;5.97;;;2.30;;
42192;SDS011;52467;40.114;18.306;2023-05-10T12:41:15;3.22;;;1.88;;
42192;SDS011;52467;40.114;18.306;2023-05-10T12:43:43;3.47;;;2.17;;
42192;SDS011;52467;40.114;18.306;2023-05-10T12:46:16;4.63;;;2.75;;
42192;SDS011;52467;40.114;18.306;2023-05-10T12:48:44;3.45;;;2.53;;
42192;SDS011;52467;40.114;18.306;2023-05-10T12:51:12;4.20;;;2.42;;
42192;SDS011;52467;40.114;18.306;2023-05-10T12:53:43;4.38;;;2.83;;
42192;SDS011;52467;40.114;18.306;2023-05-10T12:56:13;7.13;;;2.33;;
42192;SDS011;52467;40.114;18.306;2023-05-10T12:58:40;7.20;;;2.60;;
42192;SDS011;52467;40.114;18.306;2023-05-10T13:01:08;6.18;;;2.42;;
42192;SDS011;52467;40.114;18.306;2023-05-10T13:03:35;7.25;;;2.33;;
42192;SDS011;52467;40.114;18.306;2023-05-10T13:06:03;5.78;;;2.53;;
42192;SDS011;52467;40.114;18.306;2023-05-10T13:08:30;8.50;;;2.83;;
42192;SDS011;52467;40.114;18.306;2023-05-10T13:11:00;3.00;;;2.00;;
42192;SDS011;52467;40.114;18.306;2023-05-10T13:13:28;5.07;;;1.90;;
42192;SDS011;52467;40.114;18.306;2023-05-10T13:15:56;4.80;;;2.30;;
42192;SDS011;52467;40.114;18.306;2023-05-10T13:18:24;3.15;;;2.05;;
42192;SDS011;52467;40.114;18.306;2023-05-10T13:20:53;3.15;;;1.88;;
42192;SDS011;52467;40.114;18.306;2023-05-10T13:23:21;4.00;;;2.30;;
42192;SDS011;52467;40.114;18.306;2023-05-10T13:25:48;3.35;;;2.05;;
42192;SDS011;52467;40.114;18.306;2023-05-10T13:28:16;4.28;;;2.13;;
42192;SDS011;52467;40.114;18.306;2023-05-10T13:30:43;2.97;;;2.28;;
42192;SDS011;52467;40.114;18.306;2023-05-10T13:33:10;5.00;;;2.10;;
42192;SDS011;52467;40.114;18.306;2023-05-10T13:35:38;3.55;;;2.13;;
42192;SDS011;52467;40.114;18.306;2023-05-10T13:38:05;4.15;;;2.20;;
42192;SDS011;52467;40.114;18.306;2023-05-10T13:40:34;3.33;;;2.20;;
42192;SDS011;52467;40.114;18.306;2023-05-10T13:43:02;4.10;;;2.00;;
42192;SDS011;52467;40.114;18.306;2023-05-10T13:45:29;7.03;;;1.93;;
42192;SDS011;52467;40.114;18.306;2023-05-10T13:47:57;5.97;;;1.80;;
42192;SDS011;52467;40.114;18.306;2023-05-10T13:50:24;3.15;;;2.00;;
42192;SDS011;52467;40.114;18.306;2023-05-10T13:52:52;3.60;;;1.95;;
42192;SDS011;52467;40.114;18.306;2023-05-10T13:55:19;3.60;;;2.05;;
42192;SDS011;52467;40.114;18.306;2023-05-10T13:57:50;4.85;;;2.10;;
42192;SDS011;52467;40.114;18.306;2023-05-10T14:00:18;3.60;;;1.93;;
42192;SDS011;52467;40.114;18.306;2023-05-10T14:02:46;5.30;;;2.25;;
42192;SDS011;52467;40.114;18.306;2023-05-10T14:05:13;5.32;;;2.20;;
42192;SDS011;52467;40.114;18.306;2023-05-10T14:07:40;10.38;;;2.50;;
42192;SDS011;52467;40.114;18.306;2023-05-10T14:10:08;4.32;;;2.45;;
42192;SDS011;52467;40.114;18.306;2023-05-10T14:12:36;4.97;;;2.20;;
42192;SDS011;52467;40.114;18.306;2023-05-10T14:15:03;5.25;;;2.63;;
42192;SDS011;52467;40.114;18.306;2023-05-10T14:17:33;7.23;;;2.20;;
42192;SDS011;52467;40.114;18.306;2023-05-10T14:20:00;5.13;;;2.50;;
42192;SDS011;52467;40.114;18.306;2023-05-10T14:22:27;6.40;;;2.22;;
42192;SDS011;52467;40.114;18.306;2023-05-10T14:24:55;3.90;;;1.98;;
42192;SDS011;52467;40.114;18.306;2023-05-10T14:27:23;3.80;;;2.38;;
42192;SDS011;52467;40.114;18.306;2023-05-10T14:29:50;7.28;;;2.30;;
42192;SDS011;52467;40.114;18.306;2023-05-10T14:32:18;4.20;;;2.22;;
42192;SDS011;52467;40.114;18.306;2023-05-10T14:34:45;4.13;;;2.47;;
42192;SDS011;52467;40.114;18.306;2023-05-10T14:37:13;4.30;;;2.10;;
42192;SDS011;52467;40.114;18.306;2023-05-10T14:39:41;3.47;;;2.47;;
42192;SDS011;52467;40.114;18.306;2023-05-10T14:42:08;3.22;;;2.13;;
42192;SDS011;52467;40.114;18.306;2023-05-10T14:44:36;5.25;;;2.13;;
42192;SDS011;52467;40.114;18.306;2023-05-10T14:47:03;3.42;;;2.35;;
42192;SDS011;52467;40.114;18.306;2023-05-10T14:49:31;3.25;;;2.15;;
42192;SDS011;52467;40.114;18.306;2023-05-10T14:51:58;4.93;;;2.80;;
42192;SDS011;52467;40.114;18.306;2023-05-10T14:54:25;5.70;;;2.42;;
42192;SDS011;52467;40.114;18.306;2023-05-10T14:56:53;7.88;;;3.08;;
42192;SDS011;52467;40.114;18.306;2023-05-10T15:02:10;4.43;;;2.28;;
42192;SDS011;52467;40.114;18.306;2023-05-10T15:04:38;6.70;;;2.50;;
42192;SDS011;52467;40.114;18.306;2023-05-10T15:07:05;4.28;;;2.70;;
42192;SDS011;52467;40.114;18.306;2023-05-10T15:09:32;4.18;;;2.78;;
42192;SDS011;52467;40.114;18.306;2023-05-10T15:12:00;3.65;;;2.67;;
42192;SDS011;52467;40.114;18.306;2023-05-10T15:14:27;4.80;;;3.17;;
42192;SDS011;52467;40.114;18.306;2023-05-10T15:16:54;7.60;;;2.97;;
42192;SDS011;52467;40.114;18.306;2023-05-10T15:19:22;3.95;;;3.08;;
42192;SDS011;52467;40.114;18.306;2023-05-10T15:21:49;12.70;;;4.38;;
42192;SDS011;52467;40.114;18.306;2023-05-10T15:24:16;6.22;;;2.47;;
42192;SDS011;52467;40.114;18.306;2023-05-10T15:26:44;5.55;;;2.97;;
42192;SDS011;52467;40.114;18.306;2023-05-10T15:29:11;8.40;;;3.03;;
42192;SDS011;52467;40.114;18.306;2023-05-10T15:31:39;4.68;;;2.88;;
42192;SDS011;52467;40.114;18.306;2023-05-10T15:34:06;7.77;;;3.03;;
42192;SDS011;52467;40.114;18.306;2023-05-10T15:36:33;8.52;;;2.97;;
42192;SDS011;52467;40.114;18.306;2023-05-10T15:39:01;7.72;;;2.67;;